Terminal Aerodrome Forecast
Issued by NWS Cleveland, OH

Home | Current Version | Previous Version | Text Only | Print | Product List | Glossary On
Versions: 1 2 3 4 5 6 7 8 9 10 11 12 13 14 15 16 17 18 19 20 21 22 23 24
161
FTUS41 KCLE 141413 AAA
TAFERI
TAF AMD
KERI 141413Z 1414/1512 14004KT P6SM VCSH SCT015 OVC025
      TEMPO 1414/1416 5SM -SHSN BKN015 OVC025
     FM141600 16005KT P6SM BKN035
     FM141900 14008KT P6SM SCT035 BKN250
     FM150000 12006KT P6SM OVC100
     FM150800 15012KT 4SM -SN OVC035=

USA.gov is the U.S. government's official web portal to all federal, state and local government web resources and services.